createdAt,value
2019-06-27T00:04:55.301Z,24.03
2019-06-27T00:09:58.276Z,23.82
2019-06-27T00:15:00.034Z,23.73
2019-06-27T00:20:02.099Z,23.58
2019-06-27T00:25:04.929Z,23.45
2019-06-27T00:30:07.467Z,23.30
2019-06-27T00:35:09.341Z,23.28
2019-06-27T00:40:11.691Z,23.20
2019-06-27T00:45:14.665Z,23.23
2019-06-27T00:50:17.094Z,23.33
2019-06-27T00:55:19.038Z,23.32
2019-06-27T01:00:21.088Z,23.15
2019-06-27T01:05:23.006Z,23.10
2019-06-27T01:10:25.004Z,22.84
2019-06-27T01:15:27.058Z,22.70
2019-06-27T01:20:29.818Z,22.42
2019-06-27T01:25:31.816Z,22.22
2019-06-27T01:30:33.811Z,22.01
2019-06-27T01:35:36.884Z,21.94
2019-06-27T01:40:38.801Z,21.67
2019-06-27T01:45:48.766Z,21.49
2019-06-27T01:50:50.637Z,21.20
2019-06-27T01:55:52.707Z,20.94
2019-06-27T02:03:48.771Z,20.54
2019-06-27T02:08:50.638Z,20.24
2019-06-27T02:13:52.519Z,20.13
2019-06-27T02:18:54.299Z,19.93
2019-06-27T02:23:56.374Z,19.88
2019-06-27T02:28:58.188Z,19.80
2019-06-27T02:34:00.043Z,19.59
2019-06-27T02:39:01.979Z,19.42
2019-06-27T02:44:03.988Z,19.35
2019-06-27T02:49:05.976Z,19.41
2019-06-27T02:54:07.823Z,19.38
2019-06-27T02:59:09.671Z,19.41
2019-06-27T03:04:11.597Z,19.39
2019-06-27T03:09:13.423Z,19.42
2019-06-27T03:14:15.256Z,19.36
2019-06-27T03:19:17.163Z,19.34
2019-06-27T03:24:18.977Z,19.42
2019-06-27T03:29:21.963Z,19.35
2019-06-27T03:34:24.893Z,19.39
2019-06-27T03:39:26.694Z,19.10
2019-06-27T03:44:28.670Z,18.79
2019-06-27T03:49:30.826Z,18.69
2019-06-27T03:54:32.706Z,18.78
2019-06-27T03:59:34.755Z,18.66
2019-06-27T04:04:36.712Z,18.74
2019-06-27T04:09:38.536Z,18.62
2019-06-27T04:14:40.350Z,18.65
2019-06-27T04:19:42.213Z,18.52
2019-06-27T04:24:44.171Z,18.42
2019-06-27T04:29:45.968Z,18.22
2019-06-27T04:34:48.747Z,18.12
2019-06-27T04:39:51.211Z,18.22
2019-06-27T04:44:53.060Z,18.08
2019-06-27T04:49:54.988Z,18.20
2019-06-27T04:54:57.081Z,18.22
2019-06-27T04:59:59.730Z,18.21
2019-06-27T05:05:02.330Z,18.32
2019-06-27T05:10:04.794Z,18.34
2019-06-27T05:15:06.849Z,18.37
2019-06-27T05:20:09.112Z,18.79
2019-06-27T05:25:11.144Z,19.25
2019-06-27T05:30:13.645Z,19.70
2019-06-27T05:35:18.144Z,19.74
2019-06-27T05:40:20.197Z,19.55
2019-06-27T05:50:50.266Z,19.26
2019-06-27T05:55:52.210Z,19.22
2019-06-27T06:00:54.151Z,19.35
2019-06-27T06:05:56.068Z,18.84
2019-06-27T06:10:57.966Z,18.53
2019-06-27T06:16:01.079Z,18.85
2019-06-27T06:21:03.520Z,19.03
2019-06-27T06:26:05.503Z,19.12
2019-06-27T06:31:07.432Z,18.91
2019-06-27T06:36:09.536Z,18.83
2019-06-27T06:41:11.403Z,18.67
2019-06-27T06:46:21.595Z,18.92
2019-06-27T06:51:27.033Z,19.17
2019-06-27T06:56:28.844Z,19.40
2019-06-27T07:01:30.791Z,19.45
2019-06-27T07:06:32.712Z,19.51
2019-06-27T07:11:34.473Z,19.45
2019-06-27T07:16:36.348Z,19.54
2019-06-27T07:21:38.234Z,19.61
2019-06-27T07:26:40.098Z,19.65
2019-06-27T07:31:41.981Z,19.76
2019-06-27T07:36:43.804Z,19.84
2019-06-27T07:41:45.624Z,19.91
2019-06-27T07:46:47.455Z,19.98
2019-06-27T07:51:50.988Z,20.05
2019-06-27T07:56:52.817Z,20.18
2019-06-27T08:01:54.674Z,20.38
2019-06-27T08:06:56.512Z,20.47
2019-06-27T08:11:58.424Z,20.56
2019-06-27T08:17:00.202Z,20.53
2019-06-27T08:22:02.116Z,20.67
2019-06-27T08:27:05.434Z,20.78
2019-06-27T08:32:07.566Z,20.90
2019-06-27T08:37:09.603Z,20.88
2019-06-27T08:42:12.413Z,21.12
2019-06-27T08:47:14.331Z,21.17
2019-06-27T08:52:16.149Z,21.07
2019-06-27T08:57:17.996Z,21.20
2019-06-27T09:02:19.796Z,21.33
2019-06-27T09:07:21.672Z,21.35
2019-06-27T09:12:23.893Z,21.48
2019-06-27T09:17:25.732Z,21.53
2019-06-27T09:22:27.698Z,21.51
2019-06-27T09:27:29.553Z,21.59
2019-06-27T09:32:31.339Z,21.76
2019-06-27T09:37:34.359Z,22.04
2019-06-27T09:42:36.326Z,22.02
2019-06-27T09:47:38.149Z,22.17
2019-06-27T09:52:39.957Z,22.36
2019-06-27T09:57:41.879Z,22.41
2019-06-27T10:02:43.673Z,22.45
2019-06-27T10:07:47.560Z,22.46
2019-06-27T10:12:49.616Z,22.59
2019-06-27T10:17:51.538Z,22.77
2019-06-27T10:22:53.571Z,22.93
2019-06-27T10:27:55.475Z,22.98
2019-06-27T10:32:59.733Z,23.27
2019-06-27T10:38:01.133Z,23.34
2019-06-27T10:43:03.032Z,23.37
2019-06-27T10:48:04.892Z,23.53
2019-06-27T10:53:06.694Z,23.60
2019-06-27T10:58:08.542Z,23.69
2019-06-27T11:03:15.346Z,23.79
2019-06-27T11:08:14.019Z,23.91
2019-06-27T11:13:15.892Z,24.17
2019-06-27T11:18:21.147Z,24.13
2019-06-27T11:23:21.424Z,24.16
2019-06-27T11:28:23.242Z,24.28
2019-06-27T11:33:32.264Z,24.20
2019-06-27T11:38:28.819Z,24.25
2019-06-27T11:43:30.646Z,24.49
2019-06-27T11:48:32.631Z,24.57
2019-06-27T11:53:34.456Z,24.60
2019-06-27T11:58:36.330Z,24.61
2019-06-27T12:03:48.707Z,24.97
2019-06-27T12:08:42.203Z,24.80
2019-06-27T12:13:45.185Z,24.91
2019-06-27T12:18:47.019Z,25.03
2019-06-27T12:23:48.941Z,25.25
2019-06-27T12:28:50.912Z,25.48
2019-06-27T12:34:06.391Z,25.62
2019-06-27T12:38:56.539Z,25.62
2019-06-27T12:43:58.341Z,25.64
2019-06-27T12:49:00.174Z,25.67
2019-06-27T12:54:03.690Z,25.59
2019-06-27T12:59:05.606Z,25.73
2019-06-27T13:04:22.298Z,25.87
2019-06-27T13:09:11.188Z,25.87
2019-06-27T13:14:13.111Z,26.17
2019-06-27T13:19:16.305Z,25.98
2019-06-27T13:24:18.110Z,26.02
2019-06-27T13:29:20.220Z,25.84
2019-06-27T13:34:39.057Z,25.95
2019-06-27T13:39:27.189Z,26.15
2019-06-27T13:44:29.682Z,25.88
2019-06-27T13:49:31.474Z,26.05
2019-06-27T13:54:33.313Z,26.04
2019-06-27T13:59:35.416Z,26.04
2019-06-27T14:04:37.411Z,26.21
2019-06-27T14:09:52.253Z,26.44
2019-06-27T14:14:58.884Z,26.42
2019-06-27T14:19:49.888Z,26.56
2019-06-27T14:24:50.535Z,26.63
2019-06-27T14:29:52.313Z,26.75
2019-06-27T14:34:54.258Z,26.55
2019-06-27T14:45:55.269Z,26.45
2019-06-27T14:50:57.127Z,26.25
2019-06-27T14:55:58.947Z,26.57
2019-06-27T15:01:04.558Z,26.57
2019-06-27T15:06:04.634Z,26.60
2019-06-27T15:11:09.111Z,26.59
2019-06-27T15:16:12.471Z,26.53
2019-06-27T15:21:15.427Z,26.62
2019-06-27T15:26:17.388Z,26.47
2019-06-27T15:31:22.270Z,26.35
2019-06-27T15:36:22.982Z,26.47
2019-06-27T15:41:24.839Z,26.33
2019-06-27T15:46:26.719Z,26.18
2019-06-27T15:51:28.593Z,26.34
2019-06-27T15:56:31.769Z,26.42
2019-06-27T16:01:33.624Z,26.34
2019-06-27T16:06:36.647Z,26.26
2019-06-27T16:11:38.595Z,26.15
2019-06-27T16:16:40.715Z,26.18
2019-06-27T16:21:42.575Z,26.10
2019-06-27T16:26:44.611Z,26.28
2019-06-27T16:31:46.438Z,26.16
2019-06-27T16:36:48.424Z,25.87
2019-06-27T16:41:50.251Z,25.88
2019-06-27T16:46:52.153Z,25.77
2019-06-27T16:51:54.606Z,25.83
2019-06-27T16:56:56.762Z,25.94
2019-06-27T17:01:58.619Z,25.90
2019-06-27T17:07:00.444Z,25.82
2019-06-27T17:12:02.401Z,25.80
2019-06-27T17:17:04.250Z,25.68
2019-06-27T17:22:06.169Z,25.57
2019-06-27T17:27:08.068Z,25.44
2019-06-27T17:32:10.007Z,25.34
2019-06-27T17:37:11.912Z,25.30
2019-06-27T17:42:16.312Z,25.18
2019-06-27T17:47:19.653Z,24.88
2019-06-27T17:52:23.138Z,24.84
2019-06-27T17:57:26.487Z,24.91
2019-06-27T18:02:30.978Z,24.85
2019-06-27T18:07:34.742Z,24.69
2019-06-27T18:12:37.825Z,24.60
2019-06-27T18:17:40.773Z,24.64
2019-06-27T18:22:44.839Z,24.40
2019-06-27T18:33:31.468Z,24.32
2019-06-27T18:38:33.282Z,23.93
2019-06-27T18:43:35.115Z,23.65
2019-06-27T18:48:36.955Z,23.51
2019-06-27T18:53:39.056Z,23.34
2019-06-27T18:58:40.960Z,23.17
2019-06-27T19:03:42.762Z,23.03
2019-06-27T19:08:44.643Z,22.84
2019-06-27T19:13:46.449Z,22.72
2019-06-27T19:18:55.496Z,22.57
2019-06-27T19:24:09.671Z,22.40
2019-06-27T19:29:11.497Z,22.23
2019-06-27T19:34:13.298Z,22.06
2019-06-27T19:39:15.164Z,21.94
2019-06-27T19:44:17.149Z,21.83
2019-06-27T19:49:19.956Z,21.60
2019-06-27T19:54:21.716Z,21.48
2019-06-27T19:59:25.550Z,21.38
2019-06-27T20:04:33.816Z,21.30
2019-06-27T20:09:35.800Z,21.26
2019-06-27T20:14:41.324Z,21.21
2019-06-27T20:19:45.333Z,21.21
2019-06-27T20:24:47.913Z,21.13
2019-06-27T20:29:49.914Z,20.93
2019-06-27T20:34:53.821Z,20.71
2019-06-27T20:39:57.662Z,20.52
2019-06-27T20:45:01.296Z,20.39
2019-06-27T20:50:06.363Z,20.28
2019-06-27T20:55:10.472Z,20.19
2019-06-27T21:00:14.926Z,20.14
2019-06-27T21:05:19.056Z,20.09
2019-06-27T21:10:23.572Z,19.96
2019-06-27T21:15:28.139Z,19.85
2019-06-27T21:20:32.576Z,19.71
2019-06-27T21:25:36.987Z,19.54
2019-06-27T21:30:39.127Z,19.42
2019-06-27T21:35:41.094Z,19.34
2019-06-27T21:40:44.901Z,19.19
2019-06-27T21:45:48.534Z,19.10
2019-06-27T21:50:53.455Z,18.89
2019-06-27T21:55:57.571Z,18.70
2019-06-27T22:01:03.333Z,18.54
2019-06-27T22:06:07.722Z,18.45
2019-06-27T22:11:11.644Z,18.35
2019-06-27T22:16:14.583Z,18.24
2019-06-27T22:21:17.807Z,18.11
2019-06-27T22:26:19.961Z,17.97
2019-06-27T22:31:21.831Z,17.85
2019-06-27T22:36:24.922Z,17.76
2019-06-27T22:46:54.003Z,17.60
2019-06-27T22:52:22.150Z,17.40
2019-06-27T22:57:23.977Z,17.34
2019-06-27T23:02:25.815Z,17.47
2019-06-27T23:07:27.715Z,17.67
2019-06-27T23:12:29.574Z,17.81
2019-06-27T23:17:31.433Z,18.05
2019-06-27T23:22:33.389Z,18.18
2019-06-27T23:27:35.341Z,18.41
2019-06-27T23:32:37.148Z,18.51
2019-06-27T23:37:39.086Z,18.36
2019-06-27T23:42:40.943Z,18.20
2019-06-27T23:47:42.854Z,17.97
2019-06-27T23:52:44.658Z,17.95
2019-06-27T23:57:46.462Z,17.84
